createdAt,value
2023-05-05T00:01:48.322Z,-18597.69
2023-05-05T00:04:15.296Z,-18597.69
2023-05-05T00:06:44.474Z,-18597.69
2023-05-05T00:09:11.594Z,-18597.69
2023-05-05T00:11:38.892Z,-18597.69
2023-05-05T00:14:07.137Z,-18597.69
2023-05-05T00:16:34.267Z,-18597.69
2023-05-05T00:19:01.292Z,-18597.69
2023-05-05T00:21:28.251Z,-18597.69
2023-05-05T00:23:56.501Z,-18597.69
2023-05-05T00:26:23.395Z,-18597.69
2023-05-05T00:28:52.578Z,-18597.69
2023-05-05T00:31:19.756Z,-18597.69
2023-05-05T00:33:46.883Z,117940.31
2023-05-05T00:36:15.191Z,117940.31
2023-05-05T00:38:44.581Z,117940.31
2023-05-05T00:41:11.402Z,117940.31
2023-05-05T00:43:38.857Z,117940.31
2023-05-05T00:46:26.317Z,117940.31
2023-05-05T00:48:54.799Z,117940.31
2023-05-05T00:51:22.952Z,117940.31
2023-05-05T00:53:50.503Z,117940.31
2023-05-05T00:56:19.707Z,117940.31
2023-05-05T00:58:47.217Z,117940.31
2023-05-05T01:01:15.720Z,117940.31
2023-05-05T01:03:43.001Z,117940.31
2023-05-05T01:06:30.559Z,117940.31
2023-05-05T01:09:02.734Z,117940.31
2023-05-05T01:11:59.912Z,117940.31
2023-05-05T01:14:39.889Z,117940.31
2023-05-05T01:17:28.392Z,117940.31
2023-05-05T01:20:21.044Z,117940.31
2023-05-05T01:23:00.991Z,117940.31
2023-05-05T01:25:54.110Z,117940.31
2023-05-05T01:28:45.830Z,117940.31
2023-05-05T01:31:33.283Z,117940.31
2023-05-05T01:34:03.803Z,117940.31
2023-05-05T01:36:42.487Z,117940.31
2023-05-05T01:39:14.891Z,117940.31
2023-05-05T01:41:51.506Z,117940.31
2023-05-05T01:44:20.131Z,117940.31
2023-05-05T01:46:49.150Z,117940.31
2023-05-05T01:49:16.923Z,117940.31
2023-05-05T01:51:48.163Z,117940.31
2023-05-05T01:54:16.708Z,117940.31
2023-05-05T01:56:44.572Z,117940.31
2023-05-05T01:59:14.205Z,117940.31
2023-05-05T02:01:44.888Z,117940.31
2023-05-05T02:04:14.547Z,117940.31
2023-05-05T02:06:43.236Z,117940.31
2023-05-05T02:09:13.106Z,117940.31
2023-05-05T02:11:41.342Z,117940.31
2023-05-05T02:14:12.432Z,117940.31
2023-05-05T02:16:41.440Z,117940.31
2023-05-05T02:19:08.932Z,117940.31
2023-05-05T02:21:36.042Z,117940.31
2023-05-05T02:24:03.739Z,117940.31
2023-05-05T02:26:35.038Z,117940.31
2023-05-05T02:29:10.952Z,117940.31
2023-05-05T02:31:44.440Z,117940.31
2023-05-05T02:34:13.870Z,117940.31
2023-05-05T02:36:42.924Z,117940.31
2023-05-05T02:39:17.041Z,117940.31
2023-05-05T02:41:47.084Z,117940.31
2023-05-05T02:44:24.778Z,117940.31
2023-05-05T02:46:54.338Z,117940.31
2023-05-05T02:49:21.820Z,117940.31
2023-05-05T02:51:49.224Z,117940.31
2023-05-05T02:54:23.437Z,117940.31
2023-05-05T02:56:54.778Z,117940.31
2023-05-05T02:59:34.746Z,117940.31
2023-05-05T03:02:19.090Z,117940.31
2023-05-05T03:04:50.772Z,117940.31
2023-05-05T03:07:25.796Z,117940.31
2023-05-05T03:10:20.365Z,117940.31
2023-05-05T03:12:59.979Z,117940.31
2023-05-05T03:15:43.013Z,117940.31
2023-05-05T03:18:11.831Z,117940.31
2023-05-05T03:20:42.878Z,117940.31
2023-05-05T03:23:13.848Z,117940.31
2023-05-05T03:25:48.307Z,117940.31
2023-05-05T03:28:47.326Z,117940.31
2023-05-05T03:31:28.778Z,117940.31
2023-05-05T03:33:59.243Z,117940.31
2023-05-05T03:36:32.048Z,117940.31
2023-05-05T03:39:00.945Z,117940.31
2023-05-05T03:41:31.658Z,117940.31
2023-05-05T03:43:59.024Z,117940.31
2023-05-05T03:46:31.561Z,117940.31
2023-05-05T03:48:58.553Z,117940.31
2023-05-05T03:51:27.082Z,117940.31
2023-05-05T03:53:54.754Z,117940.31
2023-05-05T03:56:22.705Z,117940.31
2023-05-05T03:58:51.234Z,117940.31
2023-05-05T04:01:19.610Z,117940.31
2023-05-05T04:03:48.227Z,117940.31
2023-05-05T04:06:15.929Z,117940.31
2023-05-05T04:08:43.132Z,117940.31
2023-05-05T04:11:10.432Z,117940.31
2023-05-05T04:13:37.935Z,117940.31
2023-05-05T04:16:05.261Z,117940.31
2023-05-05T04:18:32.802Z,117940.31
2023-05-05T04:20:59.855Z,117940.31
2023-05-05T04:23:27.111Z,117940.31
2023-05-05T04:25:54.319Z,117940.31
2023-05-05T04:28:22.421Z,117940.31
2023-05-05T04:30:49.969Z,117940.31
2023-05-05T04:33:17.129Z,117940.31
2023-05-05T04:35:46.140Z,117940.31
2023-05-05T04:38:13.322Z,117940.31
2023-05-05T04:40:41.460Z,117940.31
2023-05-05T04:43:09.919Z,117940.31
2023-05-05T04:45:38.441Z,117940.31
2023-05-05T04:48:05.986Z,117940.31
2023-05-05T04:50:33.071Z,117940.31
2023-05-05T04:53:00.413Z,117940.31
2023-05-05T04:55:28.248Z,117940.31
2023-05-05T04:57:55.662Z,117940.31
2023-05-05T05:00:24.337Z,117940.31
2023-05-05T05:02:53.355Z,117940.31
2023-05-05T05:05:20.346Z,117940.31
2023-05-05T05:07:47.479Z,117940.31
2023-05-05T05:10:15.285Z,117940.31
2023-05-05T05:12:42.412Z,117940.31
2023-05-05T05:15:12.955Z,117940.31
2023-05-05T05:17:40.548Z,117940.31
2023-05-05T05:20:08.507Z,117940.31
2023-05-05T05:22:38.432Z,117940.31
2023-05-05T05:25:09.152Z,117940.31
2023-05-05T05:27:36.257Z,117940.31
2023-05-05T05:30:03.738Z,117940.31
2023-05-05T05:32:32.811Z,117940.31
2023-05-05T05:34:59.969Z,117940.31
2023-05-05T05:37:31.404Z,117940.31
2023-05-05T05:39:59.368Z,117940.31
2023-05-05T05:42:28.275Z,117940.31
2023-05-05T05:44:55.425Z,117940.31
2023-05-05T05:47:22.521Z,117940.31
2023-05-05T05:49:50.711Z,117940.31
2023-05-05T05:52:17.931Z,117940.31
2023-05-05T05:54:44.866Z,117940.31
2023-05-05T05:57:12.090Z,117940.31
2023-05-05T05:59:39.167Z,117940.31
2023-05-05T06:02:08.236Z,117940.31
2023-05-05T06:04:35.824Z,117940.31
2023-05-05T06:07:03.596Z,117940.31
2023-05-05T06:09:30.885Z,117940.31
2023-05-05T06:11:58.058Z,117940.31
2023-05-05T06:14:25.198Z,117940.31
2023-05-05T06:16:53.319Z,117940.31
2023-05-05T06:19:22.697Z,117940.31
2023-05-05T06:21:49.990Z,117940.31
2023-05-05T06:24:16.864Z,117940.31
2023-05-05T06:26:43.852Z,117940.31
2023-05-05T06:29:12.334Z,117940.31
2023-05-05T06:31:39.483Z,117940.31
2023-05-05T06:34:06.534Z,117940.31
2023-05-05T06:36:33.556Z,117940.31
2023-05-05T06:39:00.618Z,117940.31
2023-05-05T06:41:27.801Z,117940.31
2023-05-05T06:43:55.074Z,117940.31
2023-05-05T06:46:22.017Z,117940.31
2023-05-05T06:48:49.197Z,117940.31
2023-05-05T06:51:16.788Z,117940.31
2023-05-05T06:53:43.700Z,117940.31
2023-05-05T06:56:11.574Z,117940.31
2023-05-05T06:58:38.439Z,117940.31
2023-05-05T07:01:05.330Z,117940.31
2023-05-05T07:03:32.349Z,117940.31
2023-05-05T07:05:59.221Z,117395.66
2023-05-05T07:08:26.276Z,114684.06
2023-05-05T07:10:53.189Z,114141.97
2023-05-05T07:13:20.167Z,109807.75
2023-05-05T07:15:47.201Z,106289.63
2023-05-05T07:18:14.979Z,103855.75
2023-05-05T07:20:42.707Z,101963.75
2023-05-05T07:23:10.291Z,94674.31
2023-05-05T07:25:37.654Z,91708.28
2023-05-05T07:28:04.969Z,94404.59
2023-05-05T07:30:32.021Z,97912.44
2023-05-05T07:32:59.051Z,94134.88
2023-05-05T07:35:26.594Z,87667.25
2023-05-05T07:37:53.488Z,85782.81
2023-05-05T07:40:21.088Z,79597.28
2023-05-05T07:42:48.050Z,76910.91
2023-05-05T07:45:15.250Z,76642.38
2023-05-05T07:47:42.308Z,69666.66
2023-05-05T07:50:09.657Z,60295.50
2023-05-05T07:52:46.456Z,56553.22
2023-05-05T07:55:17.124Z,56553.22
2023-05-05T07:57:44.041Z,63773.66
2023-05-05T08:00:13.299Z,76105.34
2023-05-05T08:02:40.679Z,79866.03
2023-05-05T08:05:08.366Z,67254.84
2023-05-05T08:07:37.192Z,58958.56
2023-05-05T08:10:04.173Z,71811.75
2023-05-05T08:12:31.245Z,82016.59
2023-05-05T08:14:58.640Z,90899.75
2023-05-05T08:17:27.169Z,84706.38
2023-05-05T08:19:54.618Z,90899.75
2023-05-05T08:22:22.440Z,96023.22
2023-05-05T08:24:49.396Z,87936.53
2023-05-05T08:27:16.748Z,90091.41
2023-05-05T08:29:43.694Z,100883.00
2023-05-05T08:32:10.932Z,108454.28
2023-05-05T08:34:37.914Z,112516.09
2023-05-05T08:37:05.235Z,102233.97
2023-05-05T08:39:32.168Z,113599.94
2023-05-05T08:41:59.378Z,108995.63
2023-05-05T08:44:27.215Z,104126.09
2023-05-05T08:46:54.965Z,94944.06
2023-05-05T08:49:22.768Z,89552.56
2023-05-05T08:51:52.460Z,66719.06
2023-05-05T08:54:20.782Z,74226.31
2023-05-05T08:56:51.661Z,85782.81
2023-05-05T08:59:20.911Z,79328.56
2023-05-05T09:01:48.526Z,73689.63
2023-05-05T09:04:16.484Z,77179.47
2023-05-05T09:06:43.450Z,78522.53
2023-05-05T09:09:11.241Z,79328.56
2023-05-05T09:11:39.582Z,76642.38
2023-05-05T09:14:06.680Z,73421.31
2023-05-05T09:16:33.701Z,73957.97
2023-05-05T09:19:04.445Z,64309.00
2023-05-05T09:21:32.391Z,70739.06
2023-05-05T09:24:11.483Z,75836.88
2023-05-05T09:26:46.765Z,65647.75
2023-05-05T09:29:23.479Z,67522.75
2023-05-05T09:32:11.057Z,63773.66
2023-05-05T09:34:38.319Z,76373.84
2023-05-05T09:37:06.290Z,77448.03
2023-05-05T09:39:33.375Z,85513.69
2023-05-05T09:42:03.328Z,91708.28
2023-05-05T09:44:38.149Z,95213.81
2023-05-05T09:47:09.379Z,99262.44
2023-05-05T09:49:39.347Z,101153.16
2023-05-05T09:52:16.377Z,101423.34
2023-05-05T09:54:44.295Z,100612.88
2023-05-05T09:57:40.617Z,103585.41
2023-05-05T10:00:09.321Z,105207.72
2023-05-05T10:02:39.415Z,107101.22
2023-05-05T10:05:13.332Z,107371.78
2023-05-05T10:07:43.414Z,107642.38
2023-05-05T10:10:12.578Z,108454.28
2023-05-05T10:12:40.259Z,105478.16
2023-05-05T10:15:11.467Z,104396.47
2023-05-05T10:18:02.145Z,104126.09
2023-05-05T10:20:33.787Z,106289.63
2023-05-05T10:23:06.089Z,106830.66
2023-05-05T10:25:42.357Z,105748.63
2023-05-05T10:28:12.084Z,106019.09
2023-05-05T10:30:46.253Z,106830.66
2023-05-05T10:33:31.625Z,105725.38
2023-05-05T10:36:03.829Z,103731.13
2023-05-05T10:38:32.293Z,108488.09
2023-05-05T10:41:03.725Z,110349.28
2023-05-05T10:43:32.254Z,110078.53
2023-05-05T10:46:00.839Z,107879.16
2023-05-05T10:48:36.217Z,102485.22
2023-05-05T10:51:39.855Z,101457.13
2023-05-05T10:54:21.458Z,99336.28
2023-05-05T10:56:49.084Z,96929.75
2023-05-05T10:59:38.352Z,97324.06
2023-05-05T11:02:30.128Z,96320.47
2023-05-05T11:05:16.967Z,94809.19
2023-05-05T11:07:45.647Z,91849.38
2023-05-05T11:10:15.067Z,92969.84
2023-05-05T11:12:54.468Z,99511.38
2023-05-05T11:15:24.602Z,99410.09
2023-05-05T11:17:51.786Z,99081.00
2023-05-05T11:20:43.683Z,93966.31
2023-05-05T11:23:10.573Z,91017.66
2023-05-05T11:25:38.070Z,90506.09
2023-05-05T11:28:56.604Z,93123.63
2023-05-05T11:31:24.206Z,89382.09
2023-05-05T11:33:51.477Z,80025.59
2023-05-05T11:36:20.545Z,82184.63
2023-05-05T11:38:59.575Z,81907.34
2023-05-05T11:41:32.826Z,78757.59
2023-05-05T11:44:14.036Z,77989.44
2023-05-05T11:47:04.682Z,73710.59
2023-05-05T11:49:37.618Z,70192.34
2023-05-05T11:52:04.513Z,69503.31
2023-05-05T11:54:32.244Z,68561.06
2023-05-05T11:57:07.835Z,67748.81
2023-05-05T11:59:39.049Z,55693.31
2023-05-05T12:02:06.737Z,45382.88
2023-05-05T12:04:33.985Z,8958.47
2023-05-05T12:07:00.819Z,41594.38
2023-05-05T12:09:27.850Z,33021.78
2023-05-05T12:11:59.852Z,17501.06
2023-05-05T12:14:27.803Z,17596.13
2023-05-05T12:17:07.184Z,15261.41
2023-05-05T12:19:34.689Z,10604.44
2023-05-05T12:22:03.221Z,7700.78
2023-05-05T12:24:30.606Z,1373.09
2023-05-05T12:27:13.523Z,12531.78
2023-05-05T12:29:40.490Z,-9675.38
2023-05-05T12:32:30.539Z,-14138.38
2023-05-05T12:34:57.638Z,-17285.59
2023-05-05T12:37:27.800Z,-16499.03
2023-05-05T12:39:57.315Z,-14400.75
2023-05-05T12:42:24.168Z,-12826.28
2023-05-05T12:44:52.542Z,-10725.97
2023-05-05T12:47:36.864Z,-13613.59
2023-05-05T12:50:04.346Z,-10725.97
2023-05-05T12:52:45.315Z,-13876.00
2023-05-05T12:55:12.673Z,-14663.09
2023-05-05T12:57:58.069Z,-14400.75
2023-05-05T13:00:25.598Z,-15187.72
2023-05-05T13:02:53.442Z,-16499.03
2023-05-05T13:05:31.799Z,-15974.56
2023-05-05T13:07:59.179Z,-14925.41
2023-05-05T13:10:31.306Z,-18071.97
2023-05-05T13:12:58.632Z,-18597.69
2023-05-05T13:15:26.285Z,-18597.69
2023-05-05T13:18:01.597Z,-18596.16
2023-05-05T13:20:28.988Z,-9938.06
2023-05-05T13:22:56.371Z,-10200.72
2023-05-05T13:25:23.391Z,-15974.56
2023-05-05T13:27:50.439Z,-11776.25
2023-05-05T13:30:17.597Z,-8887.25
2023-05-05T13:32:44.911Z,-12038.78
2023-05-05T13:35:13.945Z,-6259.00
2023-05-05T13:37:46.234Z,-6784.81
2023-05-05T13:40:14.138Z,-7836.19
2023-05-05T13:42:41.582Z,-9675.38
2023-05-05T13:45:09.203Z,-5733.16
2023-05-05T13:47:38.555Z,-470.53
2023-05-05T13:50:06.467Z,1373.09
2023-05-05T13:52:33.588Z,3481.19
2023-05-05T13:55:00.835Z,6381.66
2023-05-05T13:57:28.436Z,2690.50
2023-05-05T13:59:56.613Z,-9412.69
2023-05-05T14:02:23.600Z,-13876.00
2023-05-05T14:04:50.535Z,-17285.59
2023-05-05T14:07:17.425Z,-17285.59
2023-05-05T14:09:45.667Z,-14663.09
2023-05-05T14:12:12.659Z,-12826.28
2023-05-05T14:14:39.748Z,-7836.19
2023-05-05T14:17:06.932Z,-7836.19
2023-05-05T14:19:34.323Z,-7573.38
2023-05-05T14:22:01.481Z,-3628.97
2023-05-05T14:24:28.530Z,1109.66
2023-05-05T14:26:55.390Z,-3102.72
2023-05-05T14:29:24.810Z,1109.66
2023-05-05T14:31:52.530Z,16044.31
2023-05-05T14:34:19.568Z,35589.31
2023-05-05T14:36:46.755Z,27438.00
2023-05-05T14:39:13.912Z,17906.16
2023-05-05T14:41:41.180Z,5590.41
2023-05-05T14:44:08.102Z,32409.72
2023-05-05T14:46:35.720Z,3217.59
2023-05-05T14:49:02.633Z,29827.69
2023-05-05T14:51:29.911Z,61731.13
2023-05-05T14:53:57.076Z,91461.94
2023-05-05T14:56:26.164Z,109042.13
2023-05-05T14:58:53.312Z,85318.16
2023-05-05T15:01:25.022Z,65662.41
2023-05-05T15:03:54.322Z,60713.38
2023-05-05T15:06:21.577Z,36818.66
2023-05-05T15:08:48.511Z,53377.53
2023-05-05T15:11:16.558Z,42944.16
2023-05-05T15:13:43.316Z,27247.38
2023-05-05T15:16:11.533Z,29039.94
2023-05-05T15:18:38.538Z,40567.25
2023-05-05T15:21:05.830Z,47854.34
2023-05-05T15:23:32.775Z,36361.75
2023-05-05T15:25:59.841Z,1373.09
2023-05-05T15:28:26.972Z,-2839.59
2023-05-05T15:30:53.850Z,-207.19
2023-05-05T15:33:20.715Z,17381.19
2023-05-05T15:35:47.660Z,35485.50
2023-05-05T15:38:14.469Z,66302.63
2023-05-05T15:40:44.216Z,87877.63
2023-05-05T15:43:11.577Z,111686.50
2023-05-05T15:45:41.439Z,83436.91
2023-05-05T15:48:08.485Z,68883.50
2023-05-05T15:50:35.667Z,51027.69
2023-05-05T15:53:03.201Z,46817.28
2023-05-05T15:55:30.436Z,60767.72
2023-05-05T15:57:57.693Z,70198.63
2023-05-05T16:00:26.016Z,77057.78
2023-05-05T16:02:52.972Z,84693.78
2023-05-05T16:05:22.223Z,103281.28
2023-05-05T16:07:49.942Z,91733.56
2023-05-05T16:10:18.895Z,93892.56
2023-05-05T16:12:59.284Z,95118.97
2023-05-05T16:15:26.310Z,92295.84
2023-05-05T16:17:53.348Z,94935.63
2023-05-05T16:20:20.626Z,86903.69
2023-05-05T16:22:47.620Z,84527.72
2023-05-05T16:25:18.052Z,74725.34
2023-05-05T16:27:44.937Z,60491.91
2023-05-05T16:30:12.885Z,58066.81
2023-05-05T16:32:40.214Z,50796.31
2023-05-05T16:35:07.847Z,58196.28
2023-05-05T16:37:35.056Z,62402.09
2023-05-05T16:40:04.484Z,64524.44
2023-05-05T16:42:31.811Z,63809.19
2023-05-05T16:44:58.674Z,64436.59
2023-05-05T16:47:25.808Z,62841.09
2023-05-05T16:49:52.696Z,61244.16
2023-05-05T16:52:19.699Z,63430.72
2023-05-05T16:54:48.092Z,65576.63
2023-05-05T16:57:14.976Z,60418.78
2023-05-05T16:59:42.240Z,58565.91
2023-05-05T17:02:09.412Z,50329.44
2023-05-05T17:04:36.311Z,51650.97
2023-05-05T17:07:03.148Z,53640.34
2023-05-05T17:09:30.374Z,41425.94
2023-05-05T17:11:57.633Z,38276.94
2023-05-05T17:14:24.729Z,40035.06
2023-05-05T17:16:51.715Z,42309.75
2023-05-05T17:19:20.888Z,36955.75
2023-05-05T17:21:47.845Z,33949.38
2023-05-05T17:24:14.723Z,26982.19
2023-05-05T17:26:41.679Z,22882.31
2023-05-05T17:29:09.671Z,24002.09
2023-05-05T17:31:37.878Z,16021.59
2023-05-05T17:34:05.967Z,14608.75
2023-05-05T17:36:33.638Z,13970.69
2023-05-05T17:39:00.542Z,936.81
2023-05-05T17:41:28.864Z,-3365.84
2023-05-05T17:43:56.447Z,-9150.00
2023-05-05T17:46:24.923Z,-7310.53
2023-05-05T17:48:52.500Z,-5207.22
2023-05-05T17:51:19.921Z,-6259.00
2023-05-05T17:53:46.871Z,-7573.38
2023-05-05T17:56:13.847Z,-2671.00
2023-05-05T17:58:41.463Z,-1758.06
2023-05-05T18:01:08.300Z,-3892.03
2023-05-05T18:03:35.129Z,-5470.19
2023-05-05T18:06:02.809Z,-3365.84
2023-05-05T18:08:29.779Z,23292.09
2023-05-05T18:10:57.258Z,17924.75
2023-05-05T18:13:24.226Z,19804.03
2023-05-05T18:15:51.488Z,-4418.16
2023-05-05T18:18:18.828Z,-8887.25
2023-05-05T18:20:45.725Z,-9412.69
2023-05-05T18:23:13.081Z,-12301.31
2023-05-05T18:25:39.978Z,-16499.03
2023-05-05T18:28:07.310Z,-17809.88
2023-05-05T18:30:34.200Z,-18596.16
2023-05-05T18:33:01.238Z,-18597.69
2023-05-05T18:35:29.130Z,-18597.69
2023-05-05T18:37:56.491Z,-18597.69
2023-05-05T18:40:23.584Z,-18597.69
2023-05-05T18:42:51.642Z,-18597.69
2023-05-05T18:45:18.687Z,-18597.69
2023-05-05T18:47:46.069Z,-18597.69
2023-05-05T18:50:13.115Z,-18597.69
2023-05-05T18:52:41.261Z,-18597.69
2023-05-05T18:55:09.031Z,-18597.69
2023-05-05T18:57:36.077Z,-18597.69
2023-05-05T19:00:10.452Z,-18597.69
2023-05-05T19:02:37.680Z,-18597.69
2023-05-05T19:05:05.212Z,-18597.69
2023-05-05T19:07:35.386Z,-18597.69
2023-05-05T19:10:05.031Z,-18597.69
2023-05-05T19:12:32.359Z,-18597.69
2023-05-05T19:14:59.264Z,-18597.69
2023-05-05T19:17:28.056Z,-18597.69
2023-05-05T19:19:54.833Z,-18597.69
2023-05-05T19:22:27.076Z,-18597.69
2023-05-05T19:24:54.312Z,-18597.69
2023-05-05T19:27:22.497Z,-18597.69
2023-05-05T19:29:53.026Z,-18597.69
2023-05-05T19:32:21.383Z,-18597.69
2023-05-05T19:34:48.445Z,-18597.69
2023-05-05T19:37:15.730Z,-18597.69
2023-05-05T19:39:44.416Z,-18597.69
2023-05-05T19:42:18.028Z,-18597.69
2023-05-05T19:44:45.820Z,-18597.69
2023-05-05T19:47:21.119Z,-18597.69
2023-05-05T19:49:48.104Z,-18597.69
2023-05-05T19:52:15.314Z,-18597.69
2023-05-05T19:54:43.653Z,-18597.69
2023-05-05T19:57:10.955Z,-18597.69
2023-05-05T19:59:37.740Z,-18597.69
2023-05-05T20:02:06.299Z,-18597.69
2023-05-05T20:04:33.182Z,117940.31
2023-05-05T20:07:01.854Z,117940.31
2023-05-05T20:09:29.059Z,117940.31
2023-05-05T20:11:58.788Z,117940.31
2023-05-05T20:14:26.254Z,117940.31
2023-05-05T20:16:53.470Z,117940.31
2023-05-05T20:19:21.631Z,117940.31
2023-05-05T20:21:48.578Z,117940.31
2023-05-05T20:24:17.187Z,117940.31
2023-05-05T20:26:44.154Z,117940.31
2023-05-05T20:29:11.164Z,117940.31
2023-05-05T20:31:46.366Z,117940.31
2023-05-05T20:34:13.672Z,117940.31
2023-05-05T20:36:41.089Z,117940.31
2023-05-05T20:39:08.273Z,117940.31
2023-05-05T20:41:36.406Z,117940.31
2023-05-05T20:44:03.546Z,117940.31
2023-05-05T20:46:31.973Z,117940.31
2023-05-05T20:48:59.138Z,117940.31
2023-05-05T20:51:31.996Z,117940.31
2023-05-05T20:53:59.014Z,117940.31
2023-05-05T20:56:26.395Z,117940.31
2023-05-05T20:58:53.461Z,117940.31
2023-05-05T21:01:28.725Z,117940.31
2023-05-05T21:03:55.946Z,117940.31
2023-05-05T21:06:24.471Z,117940.31
2023-05-05T21:08:51.380Z,117940.31
2023-05-05T21:11:18.452Z,117940.31
2023-05-05T21:17:32.719Z,117940.31
2023-05-05T21:19:59.667Z,117940.31
2023-05-05T21:22:26.598Z,117940.31
2023-05-05T21:25:12.168Z,117940.31
2023-05-05T21:27:39.183Z,117940.31
2023-05-05T21:30:14.074Z,117940.31
2023-05-05T21:32:41.256Z,117940.31
2023-05-05T21:35:10.265Z,117940.31
2023-05-05T21:37:39.056Z,117940.31
2023-05-05T21:40:22.388Z,117940.31
2023-05-05T21:42:49.533Z,117940.31
2023-05-05T21:45:18.480Z,117940.31
2023-05-05T21:47:45.640Z,117940.31
2023-05-05T21:50:24.337Z,117940.31
2023-05-05T21:52:51.195Z,117940.31
2023-05-05T21:55:19.576Z,117940.31
2023-05-05T21:57:46.608Z,117940.31
2023-05-05T22:00:18.011Z,117940.31
2023-05-05T22:02:45.909Z,117940.31
2023-05-05T22:05:13.527Z,117940.31
2023-05-05T22:07:41.225Z,117940.31
2023-05-05T22:10:08.631Z,117940.31
2023-05-05T22:12:35.659Z,117940.31
2023-05-05T22:15:03.809Z,117940.31
2023-05-05T22:17:30.797Z,117940.31
2023-05-05T22:19:57.930Z,117940.31
2023-05-05T22:22:24.802Z,117940.31
2023-05-05T22:24:51.782Z,117940.31
2023-05-05T22:27:18.856Z,117940.31
2023-05-05T22:29:46.747Z,117940.31
2023-05-05T22:32:20.673Z,117940.31
2023-05-05T22:34:47.665Z,117940.31
2023-05-05T22:37:14.963Z,117940.31
2023-05-05T22:39:41.923Z,117940.31
2023-05-05T22:42:09.210Z,117940.31
2023-05-05T22:44:36.025Z,117940.31
2023-05-05T22:47:04.074Z,117940.31
2023-05-05T22:49:32.333Z,117940.31
2023-05-05T22:51:59.428Z,117940.31
2023-05-05T22:54:26.698Z,117940.31
2023-05-05T22:56:53.617Z,117940.31
2023-05-05T22:59:21.030Z,117940.31
2023-05-05T23:01:47.916Z,117940.31
2023-05-05T23:04:17.150Z,117940.31
2023-05-05T23:06:45.047Z,117940.31
2023-05-05T23:09:11.843Z,117940.31
2023-05-05T23:11:38.686Z,117940.31
2023-05-05T23:14:06.993Z,117940.31
2023-05-05T23:16:34.293Z,117940.31
2023-05-05T23:19:01.374Z,117940.31
2023-05-05T23:21:36.154Z,117940.31
2023-05-05T23:24:06.187Z,117940.31
2023-05-05T23:26:33.075Z,117940.31
2023-05-05T23:28:59.919Z,117940.31
2023-05-05T23:31:28.434Z,117940.31
2023-05-05T23:33:55.579Z,117940.31
2023-05-05T23:36:22.504Z,117940.31
2023-05-05T23:38:49.810Z,117940.31
2023-05-05T23:41:18.448Z,117940.31
2023-05-05T23:43:45.443Z,117940.31
2023-05-05T23:46:12.557Z,117940.31
2023-05-05T23:48:43.401Z,117940.31
2023-05-05T23:51:10.902Z,117940.31
2023-05-05T23:53:37.842Z,117940.31
2023-05-05T23:56:08.991Z,117940.31
2023-05-05T23:58:36.279Z,117940.31
